Time;durP1;ratioP1;P1;durP2;ratioP2;P2;SDS_P1;SDS_P2;PMS_P1;PMS_P2;Temp;Humidity;BMP_temperature;BMP_pressure;BME280_temperature;BME280_humidity;BME280_pressure;Samples;Min_cycle;Max_cycle;Signal;HPM_P1;HPM_P2
2022/02/17 00:00:41;;;;;;;2.50;0.60;;;;;;;6.17;67.66;94938.52;107713;1268;33846;-81
2022/02/17 00:03:12;;;;;;;2.40;0.70;;;;;;;6.20;67.73;94926.33;107573;1268;132162;-81
2022/02/17 00:05:43;;;;;;;1.20;0.70;;;;;;;6.21;67.58;94948.30;107747;1268;79809;-81
2022/02/17 00:08:18;;;;;;;1.40;0.80;;;;;;;6.25;67.53;94942.12;107698;1268;35924;-81
2022/02/17 00:10:49;;;;;;;3.60;1.20;;;;;;;6.28;67.35;94928.73;107678;1268;114323;-81
2022/02/17 00:13:22;;;;;;;1.70;0.80;;;;;;;6.26;67.20;94916.25;107839;1268;209513;-81
2022/02/17 00:15:53;;;;;;;1.60;1.10;;;;;;;6.30;67.38;94928.91;107906;1268;208255;-81
2022/02/17 00:18:25;;;;;;;2.00;0.90;;;;;;;6.31;67.16;94915.15;108069;1268;66204;-81
2022/02/17 00:20:57;;;;;;;1.20;1.00;;;;;;;6.33;67.27;94923.48;107734;1268;242002;-81
2022/02/17 00:23:29;;;;;;;1.20;0.60;;;;;;;6.38;67.48;94913.57;106537;1267;1752212;-82
2022/02/17 00:26:00;;;;;;;0.60;0.60;;;;;;;6.39;67.53;94924.85;105930;1268;2584765;-81
2022/02/17 00:28:31;;;;;;;1.40;0.80;;;;;;;6.45;67.40;94916.40;106916;1268;1340229;-81
2022/02/17 00:31:02;;;;;;;0.70;0.70;;;;;;;6.53;67.42;94923.69;106768;1268;1771026;-81
2022/02/17 00:33:38;;;;;;;0.50;0.50;;;;;;;6.55;67.23;94901.20;106176;1268;2017052;-81
2022/02/17 00:36:10;;;;;;;1.10;0.50;;;;;;;6.56;67.32;94884.61;107775;1268;48209;-82
2022/02/17 00:38:42;;;;;;;0.70;0.70;;;;;;;6.54;67.47;94861.12;108082;1268;41271;-82
2022/02/17 00:41:13;;;;;;;1.50;1.00;;;;;;;6.52;67.58;94863.68;107586;1268;189969;-82
2022/02/17 00:43:47;;;;;;;0.80;0.60;;;;;;;6.49;67.63;94839.23;107789;1268;32070;-82
2022/02/17 00:46:18;;;;;;;1.20;0.50;;;;;;;6.47;67.66;94817.29;106234;1268;2002278;-82
2022/02/17 00:48:50;;;;;;;1.00;0.70;;;;;;;6.45;67.89;94784.91;106628;1268;1999425;-82
2022/02/17 00:51:24;;;;;;;1.70;0.80;;;;;;;6.42;68.16;94778.50;106674;1268;1998628;-82
2022/02/17 00:53:58;;;;;;;0.70;0.60;;;;;;;6.41;68.11;94769.42;105360;1268;1995912;-81
2022/02/17 00:56:29;;;;;;;0.60;0.50;;;;;;;6.39;68.56;94771.73;107886;1267;209730;-81
2022/02/17 00:59:03;;;;;;;1.70;0.90;;;;;;;6.43;68.59;94762.94;108074;1267;93444;-83
2022/02/17 01:01:34;;;;;;;0.50;0.50;;;;;;;6.42;68.61;94757.48;106365;1267;2226991;-82
2022/02/17 01:04:05;;;;;;;1.00;0.50;;;;;;;6.44;68.72;94742.50;106352;1267;2123821;-81
2022/02/17 01:06:39;;;;;;;0.50;0.50;;;;;;;6.43;68.89;94740.15;106239;1267;2041498;-82
2022/02/17 01:09:11;;;;;;;0.70;0.50;;;;;;;6.43;68.92;94759.04;107714;1267;115829;-82
2022/02/17 01:11:43;;;;;;;1.00;0.60;;;;;;;6.44;69.13;94745.08;107666;1268;149554;-82
2022/02/17 01:14:14;;;;;;;2.00;0.60;;;;;;;6.46;69.36;94752.78;107707;1268;130368;-82
2022/02/17 01:16:46;;;;;;;1.70;0.90;;;;;;;6.50;69.39;94750.84;107081;1267;1349757;-83
2022/02/17 01:19:20;;;;;;;1.10;0.60;;;;;;;6.67;69.48;94780.42;106309;1267;2041856;-84
2022/02/17 01:21:51;;;;;;;0.50;0.30;;;;;;;6.78;69.31;94733.20;107719;1268;144360;-83
2022/02/17 01:24:22;;;;;;;0.90;0.50;;;;;;;6.82;69.26;94725.95;105877;1267;2387233;-83
2022/02/17 01:26:56;;;;;;;0.60;0.40;;;;;;;6.85;69.24;94709.27;107812;1267;183704;-83
2022/02/17 01:29:29;;;;;;;0.90;0.50;;;;;;;6.91;69.11;94695.12;107757;1267;114603;-82
2022/02/17 01:32:00;;;;;;;0.30;0.30;;;;;;;6.96;69.38;94722.20;107563;1267;145551;-83
2022/02/17 01:34:33;;;;;;;0.60;0.50;;;;;;;7.02;69.44;94762.71;106052;1267;2192465;-83
2022/02/17 01:37:04;;;;;;;0.80;0.30;;;;;;;7.06;69.28;94785.55;107577;1267;169454;-83
2022/02/17 01:39:37;;;;;;;0.40;0.40;;;;;;;7.13;69.12;94798.58;106438;1267;1800211;-84
2022/02/17 01:42:11;;;;;;;1.60;0.40;;;;;;;7.17;68.96;94773.66;106536;1268;1448240;-83
2022/02/17 01:44:45;;;;;;;1.20;0.40;;;;;;;7.14;68.91;94809.62;107670;1268;123967;-83
2022/02/17 01:47:18;;;;;;;0.40;0.40;;;;;;;7.11;68.96;94807.59;106445;1267;1835524;-84
2022/02/17 01:49:50;;;;;;;0.60;0.60;;;;;;;7.08;69.23;94801.14;106308;1267;2068740;-83
2022/02/17 01:52:23;;;;;;;1.20;0.80;;;;;;;7.00;69.24;94772.02;106402;1267;2037023;-83
2022/02/17 01:54:57;;;;;;;0.70;0.60;;;;;;;6.99;69.81;94755.56;107923;1268;121292;-83
2022/02/17 01:57:30;;;;;;;0.40;0.40;;;;;;;6.98;69.60;94760.91;106307;1267;1786960;-83
2022/02/17 02:00:01;;;;;;;2.20;0.70;;;;;;;6.94;69.70;94753.21;104976;1267;2197111;-83
2022/02/17 02:02:34;;;;;;;0.70;0.50;;;;;;;6.92;69.81;94749.35;107726;1267;122714;-83
2022/02/17 02:05:12;;;;;;;1.10;0.70;;;;;;;6.90;70.02;94749.41;107784;1267;103639;-84
2022/02/17 02:07:43;;;;;;;0.60;0.50;;;;;;;6.89;70.01;94723.95;107618;1267;131344;-83
2022/02/17 02:10:15;;;;;;;0.40;0.40;;;;;;;6.87;70.53;94695.20;107836;1267;117770;-83
2022/02/17 02:12:47;;;;;;;1.00;0.70;;;;;;;6.85;70.83;94683.98;106268;1267;2046536;-83
2022/02/17 02:15:22;;;;;;;1.20;0.70;;;;;;;6.79;70.80;94660.35;107810;1267;113632;-84
2022/02/17 02:18:02;;;;;;;0.90;0.40;;;;;;;6.71;71.04;94670.41;106512;1267;1731163;-83
2022/02/17 02:20:33;;;;;;;0.60;0.60;;;;;;;6.68;71.43;94644.29;107663;1268;124488;-84
2022/02/17 02:23:04;;;;;;;1.40;0.90;;;;;;;6.65;71.89;94638.46;105897;1268;2590129;-83
2022/02/17 02:25:35;;;;;;;0.80;0.50;;;;;;;6.65;72.35;94650.53;107685;1267;129211;-83
2022/02/17 02:28:07;;;;;;;0.80;0.70;;;;;;;6.62;72.74;94627.27;107790;1267;112946;-83
2022/02/17 02:30:38;;;;;;;1.20;0.90;;;;;;;6.58;73.06;94624.40;107690;1267;128598;-83
2022/02/17 02:33:10;;;;;;;2.70;0.70;;;;;;;6.54;73.18;94642.14;107688;1267;150070;-84
2022/02/17 02:35:44;;;;;;;1.60;0.70;;;;;;;6.51;73.36;94613.44;107695;1267;161163;-83
2022/02/17 02:38:16;;;;;;;1.10;0.80;;;;;;;6.49;73.77;94626.47;106313;1267;1824727;-83
2022/02/17 02:40:49;;;;;;;1.00;0.90;;;;;;;6.54;74.24;94622.71;107427;1267;174178;-84
2022/02/17 02:43:22;;;;;;;0.80;0.80;;;;;;;6.57;74.31;94620.18;106402;1267;1785463;-83
2022/02/17 02:45:53;;;;;;;1.40;0.80;;;;;;;6.58;74.34;94625.05;107778;1268;102432;-83
2022/02/17 02:48:27;;;;;;;0.90;0.60;;;;;;;6.59;74.58;94608.85;105950;1267;2578647;-84
2022/02/17 02:50:59;;;;;;;1.10;0.70;;;;;;;6.67;74.67;94624.71;106853;1267;2060321;-81
2022/02/17 02:53:33;;;;;;;0.80;0.60;;;;;;;6.69;74.39;94604.30;105210;1268;3280833;-83
2022/02/17 02:56:08;;;;;;;1.20;0.90;;;;;;;6.75;74.55;94598.66;105740;1267;1388882;-84
2022/02/17 02:58:43;;;;;;;0.70;0.70;;;;;;;6.77;74.54;94585.92;107583;1267;128673;-84
2022/02/17 03:01:16;;;;;;;1.80;1.10;;;;;;;6.73;74.30;94594.06;106315;1267;1869501;-83
2022/02/17 03:03:54;;;;;;;0.80;0.50;;;;;;;6.70;74.33;94584.45;106878;1268;1267721;-84
2022/02/17 03:06:28;;;;;;;1.30;0.80;;;;;;;6.67;74.77;94568.36;106337;1267;2037527;-83
2022/02/17 03:08:59;;;;;;;1.80;1.00;;;;;;;6.66;75.55;94571.62;107706;1267;147807;-84
2022/02/17 03:11:38;;;;;;;1.40;1.20;;;;;;;6.58;76.86;94565.18;105529;1267;1705388;-83
2022/02/17 03:14:14;;;;;;;1.10;0.70;;;;;;;6.51;78.34;94551.20;106343;1268;1945889;-84
2022/02/17 03:16:49;;;;;;;1.10;0.80;;;;;;;6.45;79.40;94546.85;106901;1267;1303912;-84
2022/02/17 03:19:20;;;;;;;0.80;0.70;;;;;;;6.38;80.22;94544.94;106405;1267;1800482;-85
2022/02/17 03:21:51;;;;;;;1.20;0.90;;;;;;;6.37;80.95;94545.02;107671;1267;116894;-84
2022/02/17 03:24:22;;;;;;;1.20;0.70;;;;;;;6.32;80.95;94551.89;106903;1267;1146689;-86
2022/02/17 03:26:53;;;;;;;1.10;0.80;;;;;;;6.27;81.63;94553.31;108161;1267;35147;-84
2022/02/17 03:29:24;;;;;;;0.80;0.50;;;;;;;6.29;82.52;94538.59;106719;1267;1847276;-84
2022/02/17 03:31:55;;;;;;;1.60;0.90;;;;;;;6.38;82.90;94541.69;106337;1267;2501936;-85
2022/02/17 03:34:26;;;;;;;1.20;0.90;;;;;;;6.44;83.04;94550.74;108190;1268;93732;-85
2022/02/17 03:36:57;;;;;;;1.50;0.80;;;;;;;6.42;83.20;94544.36;106762;1267;1619111;-81
2022/02/17 03:39:30;;;;;;;0.80;0.50;;;;;;;6.41;83.27;94546.02;106858;1267;1804320;-85
2022/02/17 03:42:01;;;;;;;1.80;0.90;;;;;;;6.43;84.13;94529.74;108184;1267;35476;-82
2022/02/17 03:44:34;;;;;;;2.10;1.00;;;;;;;6.42;84.45;94521.84;107959;1267;35208;-85
2022/02/17 03:47:06;;;;;;;1.30;1.20;;;;;;;6.39;84.99;94481.96;108180;1268;37842;-84
2022/02/17 03:49:37;;;;;;;0.50;0.50;;;;;;;6.41;85.26;94519.80;108141;1267;90514;-84
2022/02/17 03:52:09;;;;;;;1.20;1.00;;;;;;;6.40;85.09;94501.90;107809;1267;37267;-84
2022/02/17 03:54:41;;;;;;;1.50;1.10;;;;;;;6.38;84.92;94512.80;108042;1267;61832;-85
2022/02/17 03:57:12;;;;;;;1.70;1.20;;;;;;;6.34;85.04;94496.61;108065;1267;108414;-84
2022/02/17 03:59:43;;;;;;;0.80;0.80;;;;;;;6.34;85.53;94481.36;108058;1267;133487;-82
2022/02/17 04:02:14;;;;;;;1.70;1.20;;;;;;;6.36;85.73;94469.58;104208;1267;2260555;-83
2022/02/17 04:04:45;;;;;;;1.30;1.00;;;;;;;6.38;85.78;94476.69;107965;1268;38030;-83
2022/02/17 04:07:16;;;;;;;1.20;0.80;;;;;;;6.33;85.69;94470.28;106665;1267;1831226;-83
2022/02/17 04:09:47;;;;;;;2.10;1.20;;;;;;;6.29;85.96;94449.13;107156;1267;1314591;-83
2022/02/17 04:12:18;;;;;;;1.70;1.20;;;;;;;6.28;86.18;94452.93;108090;1267;35272;-84
2022/02/17 04:14:49;;;;;;;2.10;1.20;;;;;;;6.28;86.53;94446.40;108249;1267;30750;-84
2022/02/17 04:17:20;;;;;;;1.10;0.90;;;;;;;6.25;86.45;94431.45;107977;1267;34658;-85
2022/02/17 04:19:52;;;;;;;0.80;0.80;;;;;;;6.22;86.43;94429.52;106817;1265;1733541;-83
2022/02/17 04:22:23;;;;;;;1.00;0.60;;;;;;;6.22;86.74;94387.80;106691;1266;2074070;-83
2022/02/17 04:24:55;;;;;;;0.60;0.60;;;;;;;6.26;86.54;94415.85;108191;1267;52731;-84
2022/02/17 04:27:27;;;;;;;0.70;0.50;;;;;;;6.25;86.30;94396.96;108202;1267;69448;-84
2022/02/17 04:29:57;;;;;;;0.60;0.50;;;;;;;6.33;85.97;94385.09;108158;1267;77759;-83
2022/02/17 04:32:31;;;;;;;0.30;0.30;;;;;;;6.42;85.30;94371.48;107755;1267;201251;-82
2022/02/17 04:35:02;;;;;;;0.60;0.30;;;;;;;6.50;84.66;94360.41;108109;1267;42298;-83
2022/02/17 04:37:35;;;;;;;0.30;0.30;;;;;;;6.56;84.05;94364.59;106747;1266;1815562;-83
2022/02/17 04:40:18;;;;;;;0.90;0.30;;;;;;;6.62;83.21;94340.16;106504;1267;2225912;-83
2022/02/17 04:42:53;;;;;;;0.50;0.30;;;;;;;6.66;82.97;94347.30;108196;1267;39017;-83
2022/02/17 04:45:27;;;;;;;0.20;0.20;;;;;;;6.81;82.19;94330.09;105028;1267;4290139;-84
2022/02/17 04:48:02;;;;;;;0.50;0.30;;;;;;;6.90;81.37;94305.66;105792;1267;2601217;-82
2022/02/17 04:50:35;;;;;;;0.20;0.20;;;;;;;6.95;80.52;94287.23;107581;1267;146498;-83
2022/02/17 04:53:05;;;;;;;0.20;0.20;;;;;;;6.96;80.14;94318.80;103763;1267;5134612;-83
2022/02/17 04:55:41;;;;;;;0.40;0.40;;;;;;;7.00;80.17;94313.55;106088;1267;1971068;-84
2022/02/17 04:58:12;;;;;;;0.30;0.30;;;;;;;7.12;79.79;94327.61;107613;1267;110533;-83
2022/02/17 05:00:44;;;;;;;0.30;0.20;;;;;;;7.16;79.34;94325.16;107671;1267;129097;-83
2022/02/17 05:03:16;;;;;;;0.40;0.20;;;;;;;7.28;78.53;94329.14;106633;1267;1261453;-83
2022/02/17 05:05:52;;;;;;;0.10;0.10;;;;;;;7.33;78.11;94330.65;106321;1267;1826004;-83
2022/02/17 05:08:24;;;;;;;0.10;0.10;;;;;;;7.28;78.07;94347.77;106872;1267;1560691;-84
2022/02/17 05:10:56;;;;;;;0.00;0.00;;;;;;;7.29;77.78;94346.63;107681;1267;167481;-84
2022/02/17 05:13:28;;;;;;;0.40;0.10;;;;;;;7.38;77.14;94337.33;105920;1267;2680360;-83
2022/02/17 05:15:59;;;;;;;0.00;0.00;;;;;;;7.41;76.98;94339.02;106769;1267;1337764;-83
2022/02/17 05:18:30;;;;;;;0.40;0.10;;;;;;;7.45;76.76;94308.67;107758;1267;112820;-84
2022/02/17 05:21:06;;;;;;;1.00;0.20;;;;;;;7.46;76.46;94327.02;107733;1266;125425;-83
2022/02/17 05:23:39;;;;;;;0.00;0.00;;;;;;;7.48;76.43;94337.86;107641;1268;105534;-84
2022/02/17 05:26:12;;;;;;;0.30;0.30;;;;;;;7.44;76.51;94345.45;105148;1267;2132544;-83
2022/02/17 05:28:43;;;;;;;0.00;0.00;;;;;;;7.46;76.48;94319.77;107747;1267;112860;-84
2022/02/17 05:31:15;;;;;;;0.20;0.20;;;;;;;7.46;76.58;94348.88;107645;1267;130560;-84
2022/02/17 05:33:46;;;;;;;0.10;0.10;;;;;;;7.45;76.68;94343.63;106783;1267;1243794;-84
2022/02/17 05:36:17;;;;;;;0.40;0.20;;;;;;;7.51;76.73;94345.45;107579;1267;163354;-83
2022/02/17 05:38:49;;;;;;;0.10;0.00;;;;;;;7.53;76.48;94331.36;107707;1267;188338;-84
2022/02/17 05:41:20;;;;;;;0.30;0.20;;;;;;;7.52;76.43;94335.84;108004;1267;54693;-84
2022/02/17 05:43:53;;;;;;;0.20;0.10;;;;;;;7.49;76.25;94332.29;108135;1267;37784;-85
2022/02/17 05:46:24;;;;;;;0.50;0.30;;;;;;;7.43;76.41;94334.27;106539;1267;2314452;-85
2022/02/17 05:48:58;;;;;;;0.40;0.20;;;;;;;7.36;76.42;94337.52;108068;1265;115984;-84
2022/02/17 05:51:29;;;;;;;0.20;0.20;;;;;;;7.30;76.70;94320.83;107194;1267;1305752;-84
2022/02/17 05:54:03;;;;;;;0.80;0.30;;;;;;;7.28;77.08;94344.11;108133;1267;50823;-84
2022/02/17 05:56:34;;;;;;;0.30;0.30;;;;;;;7.26;76.93;94344.69;108129;1267;54238;-85
2022/02/17 05:59:05;;;;;;;0.30;0.20;;;;;;;7.22;77.17;94369.38;103737;1267;5557948;-84
2022/02/17 06:01:38;;;;;;;0.50;0.30;;;;;;;7.28;77.46;94356.20;107903;1267;151402;-84
2022/02/17 06:04:11;;;;;;;0.30;0.20;;;;;;;7.27;77.28;94360.39;107990;1268;37543;-85
2022/02/17 06:06:46;;;;;;;0.10;0.10;;;;;;;7.27;77.41;94370.70;108011;1267;95529;-85
2022/02/17 06:09:19;;;;;;;0.40;0.30;;;;;;;7.23;77.42;94371.14;106496;1267;2028632;-85
2022/02/17 06:11:53;;;;;;;0.60;0.20;;;;;;;7.18;77.58;94360.79;105718;1267;2070900;-85
2022/02/17 06:14:24;;;;;;;4.00;0.30;;;;;;;7.16;77.50;94361.15;106001;1267;2548718;-85
2022/02/17 06:16:55;;;;;;;0.40;0.30;;;;;;;7.16;77.71;94343.59;105895;1267;2554867;-85
2022/02/17 06:19:26;;;;;;;0.40;0.10;;;;;;;7.17;77.64;94340.54;106361;1265;2031333;-85
2022/02/17 06:21:58;;;;;;;0.80;0.10;;;;;;;7.24;77.82;94335.58;106570;1266;1790173;-82
2022/02/17 06:24:31;;;;;;;0.40;0.10;;;;;;;7.32;78.03;94327.55;106113;1267;2135565;-84
2022/02/17 06:27:05;;;;;;;0.40;0.20;;;;;;;7.41;77.87;94313.55;106199;1267;2003760;-84
2022/02/17 06:29:38;;;;;;;0.50;0.20;;;;;;;7.53;77.57;94294.23;106335;1267;2063473;-84
2022/02/17 06:32:11;;;;;;;0.20;0.10;;;;;;;7.60;77.38;94291.59;106350;1267;1825943;-85
2022/02/17 06:34:43;;;;;;;0.20;0.10;;;;;;;7.63;77.39;94289.75;104277;1267;2544892;-85
2022/02/17 06:37:14;;;;;;;0.00;0.00;;;;;;;7.67;77.16;94313.20;106194;1267;1823001;-85
2022/02/17 06:39:46;;;;;;;0.20;0.20;;;;;;;7.69;76.82;94295.52;105295;1267;2058071;-85
2022/02/17 06:42:19;;;;;;;0.10;0.10;;;;;;;7.68;77.26;94279.95;106135;1267;2141264;-85
2022/02/17 06:44:54;;;;;;;0.30;0.20;;;;;;;7.71;77.25;94271.68;107611;1267;143863;-85
2022/02/17 06:47:25;;;;;;;0.30;0.10;;;;;;;7.76;77.14;94267.80;107630;1267;158972;-85
2022/02/17 06:49:56;;;;;;;0.10;0.10;;;;;;;7.81;77.16;94259.10;107790;1267;103032;-84
2022/02/17 06:52:29;;;;;;;1.20;0.20;;;;;;;7.93;77.29;94266.88;106503;1267;1739307;-85
2022/02/17 06:55:00;;;;;;;2.30;0.40;;;;;;;7.98;77.26;94253.43;107554;1267;146473;-84
2022/02/17 06:57:33;;;;;;;1.20;0.50;;;;;;;8.06;77.24;94243.65;107681;1267;122546;-85
2022/02/17 07:00:07;;;;;;;0.70;0.20;;;;;;;8.07;77.31;94243.45;107547;1267;134433;-86
2022/02/17 07:02:39;;;;;;;0.40;0.30;;;;;;;8.03;77.29;94236.58;105649;1268;2645315;-85
2022/02/17 07:05:12;;;;;;;0.10;0.10;;;;;;;7.90;77.78;94229.54;102676;1267;2342201;-84
2022/02/17 07:07:44;;;;;;;0.10;0.10;;;;;;;7.82;78.76;94229.81;105977;1267;2142534;-84
2022/02/17 07:10:54;;;;;;;0.20;0.20;;;;;;;7.81;79.49;94229.94;107606;1267;141824;-83
2022/02/17 07:13:18;;;;;;;0.40;0.20;;;;;;;7.79;79.65;94228.38;107673;1267;123915;-84
2022/02/17 07:15:53;;;;;;;0.50;0.20;;;;;;;7.76;79.97;94201.12;107643;1267;112589;-85
2022/02/17 07:18:25;;;;;;;0.40;0.20;;;;;;;7.73;80.27;94200.46;107767;1267;128639;-85
2022/02/17 07:20:57;;;;;;;0.30;0.10;;;;;;;7.79;80.70;94178.17;106388;1267;1879261;-85
2022/02/17 07:23:30;;;;;;;0.10;0.10;;;;;;;7.88;80.67;94167.73;107674;1267;111967;-84
2022/02/17 07:26:04;;;;;;;0.60;0.30;;;;;;;8.04;80.47;94181.13;107735;1267;128938;-84
2022/02/17 07:28:38;;;;;;;0.50;0.30;;;;;;;8.60;79.75;94166.19;107592;1267;106832;-85
2022/02/17 07:31:13;;;;;;;0.30;0.30;;;;;;;9.30;77.77;94155.32;107739;1267;150036;-85
2022/02/17 07:33:44;;;;;;;1.20;0.20;;;;;;;9.58;76.10;94164.73;107691;1267;114304;-84
2022/02/17 07:36:17;;;;;;;0.80;0.10;;;;;;;9.71;74.28;94133.67;107677;1267;100498;-85
2022/02/17 07:38:51;;;;;;;0.30;0.10;;;;;;;9.93;73.20;94113.91;105968;1267;2369124;-85
2022/02/17 07:41:22;;;;;;;0.20;0.10;;;;;;;10.05;72.52;94100.18;107553;1267;170986;-85
2022/02/17 07:43:53;;;;;;;1.00;0.50;;;;;;;10.47;72.44;94092.41;107644;1267;138623;-85
2022/02/17 07:46:27;;;;;;;0.70;0.20;;;;;;;11.55;69.32;94067.89;107786;1267;176377;-86
2022/02/17 07:49:00;;;;;;;0.80;0.30;;;;;;;11.98;66.00;94069.60;105811;1267;2322550;-84
2022/02/17 07:51:44;;;;;;;0.80;0.30;;;;;;;12.46;65.43;94054.13;105876;1267;2209460;-86
2022/02/17 07:54:20;;;;;;;0.30;0.30;;;;;;;12.86;63.33;94067.45;106088;1267;2114007;-86
2022/02/17 07:56:55;;;;;;;0.30;0.10;;;;;;;12.82;61.99;94053.63;106165;1268;1902865;-86
2022/02/17 07:59:26;;;;;;;0.10;0.10;;;;;;;12.04;62.59;94037.95;106337;1267;2048235;-85
2022/02/17 08:01:59;;;;;;;0.60;0.20;;;;;;;11.70;63.51;94035.27;103118;1267;4599758;-85
2022/02/17 08:04:31;;;;;;;4.00;0.20;;;;;;;11.64;64.18;94016.34;104807;1267;2695727;-85
2022/02/17 08:07:05;;;;;;;0.20;0.10;;;;;;;11.31;64.52;94025.38;107490;1267;167146;-85
2022/02/17 08:09:37;;;;;;;0.70;0.20;;;;;;;10.94;65.19;94005.30;104062;1267;1878544;-87
2022/02/17 08:25:48;;;;;;;0.40;0.20;;;;;;;11.14;66.17;94039.00;103926;1310;558342;-85
2022/02/17 08:28:21;;;;;;;0.10;0.10;;;;;;;10.87;65.75;94040.14;106996;1277;178727;-85
2022/02/17 08:30:52;;;;;;;0.40;0.30;;;;;;;10.63;66.62;94044.31;106017;1277;1489799;-85
2022/02/17 08:33:38;;;;;;;0.20;0.20;;;;;;;10.45;66.76;94116.52;104581;1277;2190881;-84
2022/02/17 08:36:10;;;;;;;0.20;0.10;;;;;;;9.98;65.15;94373.35;107498;1274;122632;-84
2022/02/17 08:38:43;;;;;;;0.50;0.20;;;;;;;8.33;64.76;94440.26;107534;1274;109833;-81
2022/02/17 08:41:14;;;;;;;1.50;0.10;;;;;;;7.02;66.79;94477.27;107352;1277;99591;-81
2022/02/17 08:43:46;;;;;;;0.10;0.10;;;;;;;6.35;68.02;94512.92;107185;1274;127946;-79
2022/02/17 08:46:17;;;;;;;0.30;0.20;;;;;;;5.65;69.95;94497.75;106120;1275;1613214;-83
2022/02/17 08:48:48;;;;;;;0.60;0.10;;;;;;;5.12;71.48;94471.23;107313;1274;134217;-81
2022/02/17 08:51:22;;;;;;;0.70;0.30;;;;;;;4.69;72.63;94494.42;106038;1274;1752928;-81
2022/02/17 08:53:53;;;;;;;0.20;0.20;;;;;;;4.41;74.65;94490.62;106418;1274;1499495;-83
2022/02/17 08:56:24;;;;;;;1.30;0.30;;;;;;;4.18;75.66;94498.89;107237;1277;184126;-81
2022/02/17 08:58:56;;;;;;;2.50;0.30;;;;;;;4.02;76.78;94521.86;107376;1274;108403;-82
2022/02/17 09:01:27;;;;;;;1.10;0.30;;;;;;;3.87;77.77;94533.65;107475;1271;130051;-80
2022/02/17 09:04:01;;;;;;;0.40;0.20;;;;;;;3.80;78.54;94529.36;107486;1271;92979;-80
2022/02/17 09:06:31;;;;;;;1.80;0.30;;;;;;;3.67;78.97;94554.09;107229;1274;136584;-81
2022/02/17 09:09:03;;;;;;;0.10;0.10;;;;;;;3.62;79.35;94549.33;107530;1271;93021;-78
2022/02/17 09:11:35;;;;;;;0.40;0.20;;;;;;;3.59;80.01;94570.59;107119;1271;91547;-79
2022/02/17 09:14:06;;;;;;;0.20;0.20;;;;;;;3.54;80.79;94552.75;107465;1271;98010;-81
2022/02/17 09:16:39;;;;;;;0.10;0.10;;;;;;;3.50;81.18;94558.87;107506;1271;97328;-80
2022/02/17 09:19:10;;;;;;;0.80;0.40;;;;;;;3.47;81.19;94557.23;107640;1271;98549;-80
2022/02/17 09:21:44;;;;;;;0.10;0.10;;;;;;;3.42;81.95;94544.69;107524;1271;112486;-80
2022/02/17 09:24:15;;;;;;;0.20;0.20;;;;;;;3.34;82.36;94543.42;107958;1270;69217;-80
2022/02/17 09:26:48;;;;;;;0.20;0.20;;;;;;;3.25;83.28;94535.48;107834;1270;36841;-80
2022/02/17 09:29:19;;;;;;;0.50;0.40;;;;;;;3.18;83.57;94541.66;107993;1271;28764;-80
2022/02/17 09:31:51;;;;;;;0.40;0.30;;;;;;;3.12;83.68;94546.70;107904;1269;115519;-81
2022/02/17 09:34:22;;;;;;;0.20;0.20;;;;;;;3.07;83.55;94600.96;108028;1270;37582;-81
2022/02/17 09:36:53;;;;;;;0.40;0.20;;;;;;;2.95;83.68;94589.84;107952;1271;183304;-82
2022/02/17 09:39:28;;;;;;;1.30;0.30;;;;;;;2.78;83.97;94548.95;106666;1268;2026452;-82
2022/02/17 09:41:59;;;;;;;0.60;0.40;;;;;;;2.64;83.97;94541.09;108186;1271;49542;-82
2022/02/17 09:44:34;;;;;;;0.40;0.40;;;;;;;2.60;83.93;94548.05;108173;1268;35669;-82
2022/02/17 09:47:07;;;;;;;2.10;0.40;;;;;;;2.61;84.35;94575.30;106842;1271;1501875;-81
2022/02/17 09:49:39;;;;;;;1.00;0.30;;;;;;;2.59;84.65;94599.80;108130;1270;32825;-81
2022/02/17 09:52:13;;;;;;;1.20;0.30;;;;;;;2.61;85.24;94587.33;108055;1271;45081;-82
2022/02/17 09:54:44;;;;;;;2.20;0.40;;;;;;;2.64;85.72;94592.52;107130;1270;1179394;-83
2022/02/17 09:57:23;;;;;;;0.20;0.20;;;;;;;2.70;85.99;94629.47;108141;1268;85224;-81
2022/02/17 09:59:54;;;;;;;1.10;0.30;;;;;;;2.85;86.08;94622.61;107186;1268;1306270;-82
2022/02/17 10:02:26;;;;;;;0.20;0.20;;;;;;;2.90;86.25;94626.73;107254;1268;1254145;-82
2022/02/17 10:04:59;;;;;;;0.40;0.20;;;;;;;2.94;86.39;94641.50;108094;1268;31333;-82
2022/02/17 10:07:34;;;;;;;1.00;0.50;;;;;;;2.95;86.34;94638.45;107883;1271;153530;-81
2022/02/17 10:10:07;;;;;;;1.20;0.30;;;;;;;2.97;86.37;94628.81;107158;1271;1249241;-81
2022/02/17 10:12:57;;;;;;;2.40;0.50;;;;;;;2.97;86.22;94592.80;106633;1269;1846936;-82
2022/02/17 10:15:36;;;;;;;1.50;0.70;;;;;;;2.94;86.40;94591.30;106920;1271;1310160;-83
2022/02/17 10:18:10;;;;;;;2.10;1.00;;;;;;;2.95;86.58;94555.96;107824;1271;50039;-82
2022/02/17 10:21:06;;;;;;;3.40;1.20;;;;;;;2.95;86.55;94558.00;108015;1271;43168;-82
2022/02/17 10:23:45;;;;;;;1.40;0.90;;;;;;;3.02;86.89;94533.02;108075;1268;45450;-82
2022/02/17 10:26:22;;;;;;;1.90;0.80;;;;;;;3.11;86.99;94506.20;107949;1270;59114;-82
2022/02/17 10:28:59;;;;;;;1.10;0.60;;;;;;;3.25;86.92;94479.41;108110;1270;52875;-81
2022/02/17 10:31:34;;;;;;;1.70;0.60;;;;;;;3.38;86.84;94472.87;108154;1271;30507;-81
2022/02/17 10:34:06;;;;;;;3.80;1.20;;;;;;;3.52;86.84;94470.57;108074;1271;99809;-81
2022/02/17 10:36:40;;;;;;;0.90;0.70;;;;;;;3.53;86.48;94478.42;106557;1268;1992604;-83
2022/02/17 10:39:14;;;;;;;2.10;1.30;;;;;;;3.47;86.55;94476.23;107154;1270;1209851;-81
2022/02/17 10:41:52;;;;;;;2.70;1.30;;;;;;;3.37;86.57;94492.16;106814;1268;1341138;-81
2022/02/17 10:44:25;;;;;;;1.50;1.40;;;;;;;3.28;86.81;94470.88;107629;1271;151229;-82
2022/02/17 10:46:56;;;;;;;3.40;1.30;;;;;;;3.28;86.86;94471.20;107581;1268;158602;-83
2022/02/17 10:49:28;;;;;;;1.90;1.00;;;;;;;3.27;86.76;94481.21;107684;1268;130860;-81
2022/02/17 10:52:03;;;;;;;1.80;0.80;;;;;;;3.28;86.80;94464.96;107658;1268;117038;-81
2022/02/17 10:54:35;;;;;;;3.10;1.40;;;;;;;3.31;86.70;94455.54;107680;1268;205776;-82
2022/02/17 10:57:07;;;;;;;1.40;1.00;;;;;;;3.36;86.72;94467.61;107550;1271;151278;-82
2022/02/17 11:02:30;;;;;;;2.70;1.10;;;;;;;3.41;87.09;94473.99;106410;1268;1938631;-82
2022/02/17 11:05:05;;;;;;;1.60;0.90;;;;;;;3.47;86.98;94488.56;107722;1268;131793;-82
2022/02/17 11:07:37;;;;;;;2.60;1.10;;;;;;;3.51;87.08;94493.84;107646;1268;130552;-82
2022/02/17 11:10:11;;;;;;;2.00;0.80;;;;;;;3.52;86.95;94501.58;106850;1268;1295342;-81
2022/02/17 11:12:45;;;;;;;2.00;1.40;;;;;;;3.52;87.08;94491.23;106221;1268;2181560;-82
2022/02/17 11:15:16;;;;;;;3.00;1.50;;;;;;;3.58;87.11;94486.30;107706;1268;143065;-82
2022/02/17 11:21:27;;;;;;;2.10;1.50;;;;;;;3.89;87.23;94458.81;107462;1270;163376;-82
2022/02/17 11:24:01;;;;;;;2.00;1.30;;;;;;;4.06;87.22;94450.95;105963;1268;2089119;-81
2022/02/17 11:26:35;;;;;;;3.50;1.80;;;;;;;4.26;86.91;94446.47;106733;1268;1306004;-81
2022/02/17 11:29:26;;;;;;;3.40;1.70;;;;;;;4.41;86.37;94450.32;107532;1268;204943;-82
2022/02/17 11:32:02;;;;;;;2.00;1.50;;;;;;;4.46;85.79;94447.31;107562;1268;133946;-82
2022/02/17 11:34:44;;;;;;;2.30;0.70;;;;;;;4.43;85.64;94425.77;107599;1268;217849;-82
2022/02/17 11:37:47;;;;;;;1.80;1.00;;;;;;;4.56;85.87;94427.88;107640;1268;182001;-81
2022/02/17 11:40:20;;;;;;;3.90;1.60;;;;;;;4.72;85.61;94426.34;107381;1274;183838;-82
2022/02/17 11:43:06;;;;;;;4.20;2.10;;;;;;;4.68;85.14;94434.84;107619;1268;140796;-82
2022/02/17 11:45:47;;;;;;;2.90;1.70;;;;;;;4.61;85.21;94430.66;107674;1268;197126;-82
2022/02/17 11:48:35;;;;;;;3.80;1.90;;;;;;;4.59;85.11;94436.95;107660;1268;169704;-82
2022/02/17 11:51:21;;;;;;;3.40;2.00;;;;;;;4.63;85.33;94435.44;106509;1270;1827241;-82
2022/02/17 11:54:15;;;;;;;3.30;2.10;;;;;;;4.76;85.65;94429.77;107577;1268;199131;-82
2022/02/17 11:56:50;;;;;;;3.90;2.30;;;;;;;4.83;85.41;94425.28;107639;1269;120984;-82
2022/02/17 11:59:23;;;;;;;4.50;1.90;;;;;;;4.84;85.18;94419.70;107537;1271;175739;-81
2022/02/17 12:01:55;;;;;;;2.90;1.70;;;;;;;4.93;85.51;94417.18;105240;1268;2102271;-82
2022/02/17 12:04:31;;;;;;;3.50;1.80;;;;;;;5.05;85.37;94420.27;107982;1271;46504;-82
2022/02/17 12:07:06;;;;;;;2.20;1.50;;;;;;;5.06;85.02;94422.56;107993;1271;91823;-82
2022/02/17 12:09:44;;;;;;;2.60;1.40;;;;;;;5.14;85.32;94432.73;105527;1268;2000057;-82